sensor_id;sensor_type;location;lat;lon;timestamp;P1;durP1;ratioP1;P2;durP2;ratioP2
45842;SDS011;31563;51.744;8.252;2024-03-22T00:02:15;8.93;;;8.13;;
45842;SDS011;31563;51.744;8.252;2024-03-22T00:04:42;9.20;;;8.30;;
45842;SDS011;31563;51.744;8.252;2024-03-22T00:07:08;8.00;;;7.30;;
45842;SDS011;31563;51.744;8.252;2024-03-22T00:09:35;8.98;;;8.18;;
45842;SDS011;31563;51.744;8.252;2024-03-22T00:12:01;9.13;;;8.23;;
45842;SDS011;31563;51.744;8.252;2024-03-22T00:14:29;7.93;;;7.25;;
45842;SDS011;31563;51.744;8.252;2024-03-22T00:16:55;8.25;;;7.47;;
45842;SDS011;31563;51.744;8.252;2024-03-22T00:19:24;8.88;;;8.07;;
45842;SDS011;31563;51.744;8.252;2024-03-22T00:21:50;8.48;;;7.78;;
45842;SDS011;31563;51.744;8.252;2024-03-22T00:24:17;8.40;;;7.65;;
45842;SDS011;31563;51.744;8.252;2024-03-22T00:26:43;8.57;;;7.80;;
45842;SDS011;31563;51.744;8.252;2024-03-22T00:29:10;8.23;;;7.53;;
45842;SDS011;31563;51.744;8.252;2024-03-22T00:31:36;8.85;;;8.05;;
45842;SDS011;31563;51.744;8.252;2024-03-22T00:34:03;9.20;;;8.40;;
45842;SDS011;31563;51.744;8.252;2024-03-22T00:36:31;8.80;;;7.88;;
45842;SDS011;31563;51.744;8.252;2024-03-22T00:38:58;8.80;;;7.40;;
45842;SDS011;31563;51.744;8.252;2024-03-22T00:41:24;9.25;;;8.35;;
45842;SDS011;31563;51.744;8.252;2024-03-22T00:43:51;9.40;;;8.50;;
45842;SDS011;31563;51.744;8.252;2024-03-22T00:46:17;9.05;;;7.45;;
45842;SDS011;31563;51.744;8.252;2024-03-22T00:48:44;7.88;;;7.18;;
45842;SDS011;31563;51.744;8.252;2024-03-22T00:51:10;9.45;;;8.45;;
45842;SDS011;31563;51.744;8.252;2024-03-22T00:53:39;9.70;;;8.63;;
45842;SDS011;31563;51.744;8.252;2024-03-22T00:56:05;8.82;;;8.02;;
45842;SDS011;31563;51.744;8.252;2024-03-22T00:58:32;9.55;;;8.60;;
45842;SDS011;31563;51.744;8.252;2024-03-22T01:00:58;8.93;;;8.13;;
45842;SDS011;31563;51.744;8.252;2024-03-22T01:03:25;8.90;;;8.07;;
45842;SDS011;31563;51.744;8.252;2024-03-22T01:05:51;9.85;;;8.82;;
45842;SDS011;31563;51.744;8.252;2024-03-22T01:08:18;9.27;;;8.38;;
45842;SDS011;31563;51.744;8.252;2024-03-22T01:10:46;9.90;;;8.90;;
45842;SDS011;31563;51.744;8.252;2024-03-22T01:13:13;9.93;;;8.93;;
45842;SDS011;31563;51.744;8.252;2024-03-22T01:15:40;9.95;;;8.48;;
45842;SDS011;31563;51.744;8.252;2024-03-22T01:18:06;10.40;;;9.30;;
45842;SDS011;31563;51.744;8.252;2024-03-22T01:20:33;9.82;;;8.93;;
45842;SDS011;31563;51.744;8.252;2024-03-22T01:22:59;12.07;;;9.30;;
45842;SDS011;31563;51.744;8.252;2024-03-22T01:25:27;10.52;;;9.48;;
45842;SDS011;31563;51.744;8.252;2024-03-22T01:27:55;9.88;;;8.77;;
45842;SDS011;31563;51.744;8.252;2024-03-22T01:30:22;10.18;;;8.88;;
45842;SDS011;31563;51.744;8.252;2024-03-22T01:32:48;9.88;;;8.88;;
45842;SDS011;31563;51.744;8.252;2024-03-22T01:35:15;9.60;;;8.70;;
45842;SDS011;31563;51.744;8.252;2024-03-22T01:37:41;10.18;;;8.32;;
45842;SDS011;31563;51.744;8.252;2024-03-22T01:40:09;8.85;;;8.05;;
45842;SDS011;31563;51.744;8.252;2024-03-22T01:42:36;9.50;;;8.50;;
45842;SDS011;31563;51.744;8.252;2024-03-22T01:45:05;10.48;;;9.38;;
45842;SDS011;31563;51.744;8.252;2024-03-22T01:47:31;9.73;;;8.82;;
45842;SDS011;31563;51.744;8.252;2024-03-22T01:49:59;9.27;;;8.38;;
45842;SDS011;31563;51.744;8.252;2024-03-22T01:52:26;9.02;;;8.13;;
45842;SDS011;31563;51.744;8.252;2024-03-22T01:54:54;9.07;;;8.18;;
45842;SDS011;31563;51.744;8.252;2024-03-22T01:57:20;9.20;;;8.00;;
45842;SDS011;31563;51.744;8.252;2024-03-22T01:59:48;8.98;;;8.07;;
45842;SDS011;31563;51.744;8.252;2024-03-22T02:02:18;9.43;;;8.40;;
45842;SDS011;31563;51.744;8.252;2024-03-22T02:04:45;8.45;;;7.63;;
45842;SDS011;31563;51.744;8.252;2024-03-22T02:07:11;9.13;;;8.23;;
45842;SDS011;31563;51.744;8.252;2024-03-22T02:09:38;9.25;;;8.35;;
45842;SDS011;31563;51.744;8.252;2024-03-22T02:12:04;8.70;;;7.88;;
45842;SDS011;31563;51.744;8.252;2024-03-22T02:14:32;7.97;;;7.18;;
45842;SDS011;31563;51.744;8.252;2024-03-22T02:16:58;9.85;;;8.63;;
45842;SDS011;31563;51.744;8.252;2024-03-22T02:19:26;9.18;;;8.27;;
45842;SDS011;31563;51.744;8.252;2024-03-22T02:21:52;9.27;;;7.97;;
45842;SDS011;31563;51.744;8.252;2024-03-22T02:24:20;9.13;;;8.23;;
45842;SDS011;31563;51.744;8.252;2024-03-22T02:26:46;9.45;;;7.57;;
45842;SDS011;31563;51.744;8.252;2024-03-22T02:29:13;8.15;;;7.28;;
45842;SDS011;31563;51.744;8.252;2024-03-22T02:31:39;8.02;;;7.20;;
45842;SDS011;31563;51.744;8.252;2024-03-22T02:34:07;8.50;;;7.70;;
45842;SDS011;31563;51.744;8.252;2024-03-22T02:36:33;8.48;;;7.68;;
45842;SDS011;31563;51.744;8.252;2024-03-22T02:39:01;8.93;;;7.90;;
45842;SDS011;31563;51.744;8.252;2024-03-22T02:41:28;8.43;;;7.65;;
45842;SDS011;31563;51.744;8.252;2024-03-22T02:43:55;8.38;;;7.45;;
45842;SDS011;31563;51.744;8.252;2024-03-22T02:46:21;8.52;;;7.60;;
45842;SDS011;31563;51.744;8.252;2024-03-22T02:48:48;8.48;;;7.50;;
45842;SDS011;31563;51.744;8.252;2024-03-22T02:51:14;7.57;;;6.85;;
45842;SDS011;31563;51.744;8.252;2024-03-22T02:53:41;8.50;;;7.57;;
45842;SDS011;31563;51.744;8.252;2024-03-22T02:56:07;7.97;;;7.13;;
45842;SDS011;31563;51.744;8.252;2024-03-22T02:58:36;8.52;;;7.43;;
45842;SDS011;31563;51.744;8.252;2024-03-22T03:01:02;7.80;;;7.05;;
45842;SDS011;31563;51.744;8.252;2024-03-22T03:03:31;8.35;;;7.55;;
45842;SDS011;31563;51.744;8.252;2024-03-22T03:05:57;7.97;;;7.18;;
45842;SDS011;31563;51.744;8.252;2024-03-22T03:08:24;8.55;;;7.28;;
45842;SDS011;31563;51.744;8.252;2024-03-22T03:10:50;8.77;;;7.60;;
45842;SDS011;31563;51.744;8.252;2024-03-22T03:13:17;8.82;;;7.30;;
45842;SDS011;31563;51.744;8.252;2024-03-22T03:15:44;7.93;;;7.18;;
45842;SDS011;31563;51.744;8.252;2024-03-22T03:18:11;9.20;;;7.40;;
45842;SDS011;31563;51.744;8.252;2024-03-22T03:20:37;8.38;;;7.47;;
45842;SDS011;31563;51.744;8.252;2024-03-22T03:23:04;7.93;;;7.13;;
45842;SDS011;31563;51.744;8.252;2024-03-22T03:25:30;7.47;;;6.75;;
45842;SDS011;31563;51.744;8.252;2024-03-22T03:27:57;7.72;;;6.93;;
45842;SDS011;31563;51.744;8.252;2024-03-22T03:30:23;7.20;;;6.50;;
45842;SDS011;31563;51.744;8.252;2024-03-22T03:32:52;7.97;;;6.70;;
45842;SDS011;31563;51.744;8.252;2024-03-22T03:35:18;7.65;;;6.70;;
45842;SDS011;31563;51.744;8.252;2024-03-22T03:37:45;6.78;;;6.13;;
45842;SDS011;31563;51.744;8.252;2024-03-22T03:40:11;7.65;;;6.57;;
45842;SDS011;31563;51.744;8.252;2024-03-22T03:42:38;7.60;;;6.85;;
45842;SDS011;31563;51.744;8.252;2024-03-22T03:45:05;8.07;;;6.63;;
45842;SDS011;31563;51.744;8.252;2024-03-22T03:47:32;8.00;;;7.07;;
45842;SDS011;31563;51.744;8.252;2024-03-22T03:50:00;7.15;;;6.32;;
45842;SDS011;31563;51.744;8.252;2024-03-22T03:52:27;6.82;;;6.18;;
45842;SDS011;31563;51.744;8.252;2024-03-22T03:54:53;7.05;;;6.35;;
45842;SDS011;31563;51.744;8.252;2024-03-22T03:57:20;7.30;;;6.50;;
45842;SDS011;31563;51.744;8.252;2024-03-22T03:59:46;8.65;;;7.50;;
45842;SDS011;31563;51.744;8.252;2024-03-22T04:02:13;6.50;;;5.78;;
45842;SDS011;31563;51.744;8.252;2024-03-22T04:04:39;8.80;;;7.78;;
45842;SDS011;31563;51.744;8.252;2024-03-22T04:07:08;11.65;;;8.85;;
45842;SDS011;31563;51.744;8.252;2024-03-22T04:09:34;9.88;;;8.68;;
45842;SDS011;31563;51.744;8.252;2024-03-22T04:12:01;8.32;;;7.07;;
45842;SDS011;31563;51.744;8.252;2024-03-22T04:14:27;8.82;;;7.93;;
45842;SDS011;31563;51.744;8.252;2024-03-22T04:16:54;8.02;;;7.22;;
45842;SDS011;31563;51.744;8.252;2024-03-22T04:19:21;7.68;;;6.88;;
45842;SDS011;31563;51.744;8.252;2024-03-22T04:21:49;7.60;;;6.80;;
45842;SDS011;31563;51.744;8.252;2024-03-22T04:24:16;8.95;;;7.55;;
45842;SDS011;31563;51.744;8.252;2024-03-22T04:26:44;7.93;;;7.03;;
45842;SDS011;31563;51.744;8.252;2024-03-22T04:29:10;8.68;;;7.15;;
45842;SDS011;31563;51.744;8.252;2024-03-22T04:31:37;8.45;;;7.55;;
45842;SDS011;31563;51.744;8.252;2024-03-22T04:34:03;7.38;;;6.57;;
45842;SDS011;31563;51.744;8.252;2024-03-22T04:36:32;8.15;;;7.13;;
45842;SDS011;31563;51.744;8.252;2024-03-22T04:38:58;8.38;;;6.65;;
45842;SDS011;31563;51.744;8.252;2024-03-22T04:41:27;8.20;;;6.50;;
45842;SDS011;31563;51.744;8.252;2024-03-22T04:43:54;9.98;;;7.05;;
45842;SDS011;31563;51.744;8.252;2024-03-22T04:46:21;7.18;;;5.80;;
45842;SDS011;31563;51.744;8.252;2024-03-22T04:48:49;7.22;;;6.13;;
45842;SDS011;31563;51.744;8.252;2024-03-22T04:51:16;5.97;;;5.38;;
45842;SDS011;31563;51.744;8.252;2024-03-22T04:53:43;6.40;;;5.40;;
45842;SDS011;31563;51.744;8.252;2024-03-22T04:56:09;6.00;;;5.28;;
45842;SDS011;31563;51.744;8.252;2024-03-22T04:58:38;6.10;;;4.78;;
45842;SDS011;31563;51.744;8.252;2024-03-22T05:01:04;6.85;;;5.00;;
45842;SDS011;31563;51.744;8.252;2024-03-22T05:03:31;5.60;;;4.57;;
45842;SDS011;31563;51.744;8.252;2024-03-22T05:05:57;5.85;;;4.90;;
45842;SDS011;31563;51.744;8.252;2024-03-22T05:08:24;5.60;;;4.80;;
45842;SDS011;31563;51.744;8.252;2024-03-22T05:10:50;5.15;;;4.25;;
45842;SDS011;31563;51.744;8.252;2024-03-22T05:13:19;4.38;;;3.97;;
45842;SDS011;31563;51.744;8.252;2024-03-22T05:15:46;4.65;;;3.83;;
45842;SDS011;31563;51.744;8.252;2024-03-22T05:18:13;4.68;;;3.75;;
45842;SDS011;31563;51.744;8.252;2024-03-22T05:20:39;5.55;;;4.35;;
45842;SDS011;31563;51.744;8.252;2024-03-22T05:23:06;5.15;;;3.85;;
45842;SDS011;31563;51.744;8.252;2024-03-22T05:25:32;5.25;;;3.80;;
45842;SDS011;31563;51.744;8.252;2024-03-22T05:27:59;4.78;;;3.92;;
45842;SDS011;31563;51.744;8.252;2024-03-22T05:30:26;5.55;;;4.10;;
45842;SDS011;31563;51.744;8.252;2024-03-22T05:32:54;5.90;;;3.78;;
45842;SDS011;31563;51.744;8.252;2024-03-22T05:35:20;3.92;;;3.33;;
45842;SDS011;31563;51.744;8.252;2024-03-22T05:37:47;4.43;;;3.53;;
45842;SDS011;31563;51.744;8.252;2024-03-22T05:40:14;5.30;;;4.03;;
45842;SDS011;31563;51.744;8.252;2024-03-22T05:42:42;5.15;;;4.00;;
45842;SDS011;31563;51.744;8.252;2024-03-22T05:45:08;5.10;;;3.65;;
45842;SDS011;31563;51.744;8.252;2024-03-22T05:47:35;4.05;;;3.30;;
45842;SDS011;31563;51.744;8.252;2024-03-22T05:50:04;6.07;;;3.58;;
45842;SDS011;31563;51.744;8.252;2024-03-22T05:52:33;4.90;;;3.60;;
45842;SDS011;31563;51.744;8.252;2024-03-22T05:55:00;6.07;;;3.58;;
45842;SDS011;31563;51.744;8.252;2024-03-22T05:57:27;5.50;;;4.00;;
45842;SDS011;31563;51.744;8.252;2024-03-22T05:59:53;13.82;;;8.43;;
45842;SDS011;31563;51.744;8.252;2024-03-22T06:02:21;15.43;;;11.95;;
45842;SDS011;31563;51.744;8.252;2024-03-22T06:04:47;19.38;;;13.77;;
45842;SDS011;31563;51.744;8.252;2024-03-22T06:07:15;16.27;;;12.65;;
45842;SDS011;31563;51.744;8.252;2024-03-22T06:09:42;15.45;;;12.57;;
45842;SDS011;31563;51.744;8.252;2024-03-22T06:12:12;15.13;;;12.13;;
45842;SDS011;31563;51.744;8.252;2024-03-22T06:14:39;12.48;;;10.27;;
45842;SDS011;31563;51.744;8.252;2024-03-22T06:17:06;12.10;;;10.32;;
45842;SDS011;31563;51.744;8.252;2024-03-22T06:19:32;11.60;;;9.80;;
45842;SDS011;31563;51.744;8.252;2024-03-22T06:21:59;11.30;;;9.18;;
45842;SDS011;31563;51.744;8.252;2024-03-22T06:24:26;11.65;;;8.07;;
45842;SDS011;31563;51.744;8.252;2024-03-22T06:26:53;12.40;;;7.97;;
45842;SDS011;31563;51.744;8.252;2024-03-22T06:29:20;9.93;;;6.55;;
45842;SDS011;31563;51.744;8.252;2024-03-22T06:31:47;11.13;;;6.88;;
45842;SDS011;31563;51.744;8.252;2024-03-22T06:34:15;9.27;;;6.22;;
45842;SDS011;31563;51.744;8.252;2024-03-22T06:36:45;8.05;;;5.82;;
45842;SDS011;31563;51.744;8.252;2024-03-22T06:39:12;7.85;;;5.53;;
45842;SDS011;31563;51.744;8.252;2024-03-22T06:41:41;7.75;;;6.00;;
45842;SDS011;31563;51.744;8.252;2024-03-22T06:44:07;7.63;;;5.13;;
45842;SDS011;31563;51.744;8.252;2024-03-22T06:46:37;7.57;;;4.72;;
45842;SDS011;31563;51.744;8.252;2024-03-22T06:49:03;6.72;;;4.63;;
45842;SDS011;31563;51.744;8.252;2024-03-22T06:51:30;6.60;;;4.45;;
45842;SDS011;31563;51.744;8.252;2024-03-22T06:53:56;7.15;;;4.50;;
45842;SDS011;31563;51.744;8.252;2024-03-22T06:56:23;5.50;;;3.92;;
45842;SDS011;31563;51.744;8.252;2024-03-22T06:58:50;6.30;;;4.00;;
45842;SDS011;31563;51.744;8.252;2024-03-22T07:01:17;6.15;;;4.10;;
45842;SDS011;31563;51.744;8.252;2024-03-22T07:03:46;7.03;;;4.82;;
45842;SDS011;31563;51.744;8.252;2024-03-22T07:06:13;6.50;;;4.85;;
45842;SDS011;31563;51.744;8.252;2024-03-22T07:08:40;5.63;;;4.68;;
45842;SDS011;31563;51.744;8.252;2024-03-22T07:11:07;6.63;;;4.53;;
45842;SDS011;31563;51.744;8.252;2024-03-22T07:13:33;6.43;;;4.75;;
45842;SDS011;31563;51.744;8.252;2024-03-22T07:16:02;6.80;;;4.20;;
45842;SDS011;31563;51.744;8.252;2024-03-22T07:18:29;6.43;;;3.85;;
45842;SDS011;31563;51.744;8.252;2024-03-22T07:20:56;6.25;;;4.30;;
45842;SDS011;31563;51.744;8.252;2024-03-22T07:23:23;6.55;;;4.07;;
45842;SDS011;31563;51.744;8.252;2024-03-22T07:25:50;7.88;;;4.38;;
45842;SDS011;31563;51.744;8.252;2024-03-22T07:28:16;9.70;;;6.78;;
45842;SDS011;31563;51.744;8.252;2024-03-22T07:30:43;14.00;;;10.80;;
45842;SDS011;31563;51.744;8.252;2024-03-22T07:33:11;12.05;;;9.80;;
45842;SDS011;31563;51.744;8.252;2024-03-22T07:35:41;12.10;;;10.43;;
45842;SDS011;31563;51.744;8.252;2024-03-22T07:38:07;12.40;;;10.38;;
45842;SDS011;31563;51.744;8.252;2024-03-22T07:40:34;13.63;;;10.85;;
45842;SDS011;31563;51.744;8.252;2024-03-22T07:43:00;11.88;;;10.43;;
45842;SDS011;31563;51.744;8.252;2024-03-22T07:45:31;10.82;;;9.25;;
45842;SDS011;31563;51.744;8.252;2024-03-22T07:47:57;12.65;;;10.30;;
45842;SDS011;31563;51.744;8.252;2024-03-22T07:50:26;11.20;;;9.65;;
45842;SDS011;31563;51.744;8.252;2024-03-22T07:52:52;11.82;;;9.98;;
45842;SDS011;31563;51.744;8.252;2024-03-22T07:55:19;11.45;;;10.00;;
45842;SDS011;31563;51.744;8.252;2024-03-22T07:57:45;12.80;;;8.98;;
45842;SDS011;31563;51.744;8.252;2024-03-22T08:00:13;11.25;;;9.27;;
45842;SDS011;31563;51.744;8.252;2024-03-22T08:02:39;11.48;;;9.38;;
45842;SDS011;31563;51.744;8.252;2024-03-22T08:05:07;11.40;;;9.23;;
45842;SDS011;31563;51.744;8.252;2024-03-22T08:07:35;11.43;;;8.13;;
45842;SDS011;31563;51.744;8.252;2024-03-22T08:10:02;12.05;;;9.10;;
45842;SDS011;31563;51.744;8.252;2024-03-22T08:12:29;11.35;;;9.27;;
45842;SDS011;31563;51.744;8.252;2024-03-22T08:14:57;9.55;;;8.45;;
45842;SDS011;31563;51.744;8.252;2024-03-22T08:17:23;10.75;;;8.90;;
45842;SDS011;31563;51.744;8.252;2024-03-22T08:19:50;11.05;;;8.60;;
45842;SDS011;31563;51.744;8.252;2024-03-22T08:22:17;12.18;;;8.60;;
45842;SDS011;31563;51.744;8.252;2024-03-22T08:24:45;10.60;;;7.85;;
45842;SDS011;31563;51.744;8.252;2024-03-22T08:27:11;12.82;;;9.35;;
45842;SDS011;31563;51.744;8.252;2024-03-22T08:29:39;10.90;;;8.80;;
45842;SDS011;31563;51.744;8.252;2024-03-22T08:32:06;9.68;;;7.95;;
45842;SDS011;31563;51.744;8.252;2024-03-22T08:34:33;10.60;;;6.43;;
45842;SDS011;31563;51.744;8.252;2024-03-22T08:36:59;8.27;;;5.70;;
45842;SDS011;31563;51.744;8.252;2024-03-22T08:39:29;7.90;;;5.07;;
45842;SDS011;31563;51.744;8.252;2024-03-22T08:41:56;7.70;;;5.30;;
45842;SDS011;31563;51.744;8.252;2024-03-22T08:44:23;6.70;;;4.93;;
45842;SDS011;31563;51.744;8.252;2024-03-22T08:46:49;6.57;;;4.13;;
45842;SDS011;31563;51.744;8.252;2024-03-22T08:49:17;6.43;;;3.60;;
45842;SDS011;31563;51.744;8.252;2024-03-22T08:51:44;6.35;;;4.10;;
45842;SDS011;31563;51.744;8.252;2024-03-22T08:54:13;5.43;;;3.30;;
45842;SDS011;31563;51.744;8.252;2024-03-22T08:56:40;3.63;;;2.65;;
45842;SDS011;31563;51.744;8.252;2024-03-22T08:59:08;6.03;;;3.40;;
45842;SDS011;31563;51.744;8.252;2024-03-22T09:01:35;5.38;;;3.00;;
45842;SDS011;31563;51.744;8.252;2024-03-22T09:04:03;6.50;;;2.70;;
45842;SDS011;31563;51.744;8.252;2024-03-22T09:06:29;3.45;;;2.33;;
45842;SDS011;31563;51.744;8.252;2024-03-22T09:08:56;3.88;;;2.30;;
45842;SDS011;31563;51.744;8.252;2024-03-22T09:11:23;4.85;;;2.72;;
45842;SDS011;31563;51.744;8.252;2024-03-22T09:13:51;4.25;;;2.63;;
45842;SDS011;31563;51.744;8.252;2024-03-22T09:16:19;3.47;;;2.28;;
45842;SDS011;31563;51.744;8.252;2024-03-22T09:18:46;2.78;;;2.20;;
45842;SDS011;31563;51.744;8.252;2024-03-22T09:21:12;2.30;;;1.92;;
45842;SDS011;31563;51.744;8.252;2024-03-22T09:23:39;4.20;;;3.10;;
45842;SDS011;31563;51.744;8.252;2024-03-22T09:26:05;3.10;;;2.30;;
45842;SDS011;31563;51.744;8.252;2024-03-22T09:28:32;4.03;;;2.20;;
45842;SDS011;31563;51.744;8.252;2024-03-22T09:31:02;2.85;;;2.10;;
45842;SDS011;31563;51.744;8.252;2024-03-22T09:33:32;3.45;;;2.55;;
45842;SDS011;31563;51.744;8.252;2024-03-22T09:35:58;3.30;;;2.30;;
45842;SDS011;31563;51.744;8.252;2024-03-22T09:38:25;3.55;;;2.33;;
45842;SDS011;31563;51.744;8.252;2024-03-22T09:40:51;4.75;;;2.50;;
45842;SDS011;31563;51.744;8.252;2024-03-22T09:43:20;2.70;;;2.10;;
45842;SDS011;31563;51.744;8.252;2024-03-22T09:45:46;4.03;;;2.38;;
45842;SDS011;31563;51.744;8.252;2024-03-22T09:48:14;5.40;;;2.85;;
45842;SDS011;31563;51.744;8.252;2024-03-22T09:50:42;3.10;;;1.85;;
45842;SDS011;31563;51.744;8.252;2024-03-22T09:53:12;2.97;;;2.13;;
45842;SDS011;31563;51.744;8.252;2024-03-22T09:55:39;3.13;;;2.00;;
45842;SDS011;31563;51.744;8.252;2024-03-22T10:00:34;3.30;;;2.28;;
45842;SDS011;31563;51.744;8.252;2024-03-22T10:03:01;3.15;;;2.20;;
45842;SDS011;31563;51.744;8.252;2024-03-22T10:05:31;10.48;;;8.15;;
45842;SDS011;31563;51.744;8.252;2024-03-22T10:08:00;9.18;;;8.13;;
45842;SDS011;31563;51.744;8.252;2024-03-22T10:10:27;10.57;;;8.68;;
45842;SDS011;31563;51.744;8.252;2024-03-22T10:12:54;10.30;;;9.15;;
45842;SDS011;31563;51.744;8.252;2024-03-22T10:15:20;12.13;;;9.13;;
45842;SDS011;31563;51.744;8.252;2024-03-22T10:17:47;10.15;;;8.05;;
45842;SDS011;31563;51.744;8.252;2024-03-22T10:20:13;10.40;;;7.47;;
45842;SDS011;31563;51.744;8.252;2024-03-22T10:22:47;8.95;;;8.05;;
45842;SDS011;31563;51.744;8.252;2024-03-22T10:25:15;9.63;;;8.00;;
45842;SDS011;31563;51.744;8.252;2024-03-22T10:27:42;11.15;;;8.13;;
45842;SDS011;31563;51.744;8.252;2024-03-22T10:30:09;8.35;;;7.55;;
45842;SDS011;31563;51.744;8.252;2024-03-22T10:32:38;9.27;;;8.10;;
45842;SDS011;31563;51.744;8.252;2024-03-22T10:35:05;8.48;;;7.50;;
45842;SDS011;31563;51.744;8.252;2024-03-22T10:37:33;6.63;;;5.90;;
45842;SDS011;31563;51.744;8.252;2024-03-22T10:40:00;6.28;;;5.28;;
45842;SDS011;31563;51.744;8.252;2024-03-22T10:42:34;9.38;;;4.68;;
45842;SDS011;31563;51.744;8.252;2024-03-22T10:45:00;6.60;;;5.13;;
45842;SDS011;31563;51.744;8.252;2024-03-22T10:47:28;4.85;;;3.50;;
45842;SDS011;31563;51.744;8.252;2024-03-22T10:49:56;5.47;;;3.63;;
45842;SDS011;31563;51.744;8.252;2024-03-22T10:52:31;4.38;;;2.90;;
45842;SDS011;31563;51.744;8.252;2024-03-22T10:54:59;5.75;;;2.60;;
45842;SDS011;31563;51.744;8.252;2024-03-22T10:57:30;4.95;;;2.83;;
45842;SDS011;31563;51.744;8.252;2024-03-22T10:59:58;4.28;;;2.17;;
45842;SDS011;31563;51.744;8.252;2024-03-22T11:02:25;3.17;;;2.00;;
45842;SDS011;31563;51.744;8.252;2024-03-22T11:04:54;4.47;;;2.37;;
45842;SDS011;31563;51.744;8.252;2024-03-22T11:09:53;3.10;;;2.35;;
45842;SDS011;31563;51.744;8.252;2024-03-22T11:12:23;3.90;;;2.38;;
45842;SDS011;31563;51.744;8.252;2024-03-22T11:14:50;3.70;;;2.70;;
45842;SDS011;31563;51.744;8.252;2024-03-22T11:17:19;3.80;;;2.30;;
45842;SDS011;31563;51.744;8.252;2024-03-22T11:19:48;4.28;;;2.58;;
45842;SDS011;31563;51.744;8.252;2024-03-22T11:22:15;4.82;;;2.15;;
45842;SDS011;31563;51.744;8.252;2024-03-22T11:24:41;10.48;;;9.38;;
45842;SDS011;31563;51.744;8.252;2024-03-22T11:27:09;10.90;;;9.80;;
45842;SDS011;31563;51.744;8.252;2024-03-22T11:29:36;12.05;;;10.68;;
45842;SDS011;31563;51.744;8.252;2024-03-22T11:32:04;11.80;;;10.13;;
45842;SDS011;31563;51.744;8.252;2024-03-22T11:34:32;14.38;;;9.90;;
45842;SDS011;31563;51.744;8.252;2024-03-22T11:37:00;15.75;;;10.35;;
45842;SDS011;31563;51.744;8.252;2024-03-22T11:39:26;8.85;;;7.35;;
45842;SDS011;31563;51.744;8.252;2024-03-22T11:41:53;8.30;;;6.20;;
45842;SDS011;31563;51.744;8.252;2024-03-22T11:44:19;9.25;;;5.72;;
45842;SDS011;31563;51.744;8.252;2024-03-22T11:46:51;7.80;;;4.53;;
45842;SDS011;31563;51.744;8.252;2024-03-22T11:49:17;9.48;;;4.32;;
45842;SDS011;31563;51.744;8.252;2024-03-22T11:51:46;6.72;;;3.75;;
45842;SDS011;31563;51.744;8.252;2024-03-22T11:54:12;8.82;;;3.55;;
45842;SDS011;31563;51.744;8.252;2024-03-22T11:56:40;8.55;;;3.90;;
45842;SDS011;31563;51.744;8.252;2024-03-22T11:59:06;4.22;;;3.30;;
45842;SDS011;31563;51.744;8.252;2024-03-22T12:01:33;6.97;;;2.55;;
45842;SDS011;31563;51.744;8.252;2024-03-22T12:03:59;7.13;;;2.53;;
45842;SDS011;31563;51.744;8.252;2024-03-22T12:06:26;4.97;;;2.85;;
45842;SDS011;31563;51.744;8.252;2024-03-22T12:08:54;4.38;;;2.17;;
45842;SDS011;31563;51.744;8.252;2024-03-22T12:11:21;4.18;;;2.95;;
45842;SDS011;31563;51.744;8.252;2024-03-22T12:13:47;5.18;;;2.47;;
45842;SDS011;31563;51.744;8.252;2024-03-22T12:16:15;3.33;;;2.25;;
45842;SDS011;31563;51.744;8.252;2024-03-22T12:18:41;2.67;;;1.98;;
45842;SDS011;31563;51.744;8.252;2024-03-22T12:21:08;7.40;;;2.10;;
45842;SDS011;31563;51.744;8.252;2024-03-22T12:23:34;3.55;;;2.00;;
45842;SDS011;31563;51.744;8.252;2024-03-22T12:26:03;3.60;;;2.17;;
45842;SDS011;31563;51.744;8.252;2024-03-22T12:28:29;4.07;;;2.10;;
45842;SDS011;31563;51.744;8.252;2024-03-22T12:30:56;4.10;;;1.85;;
45842;SDS011;31563;51.744;8.252;2024-03-22T12:33:22;4.00;;;2.20;;
45842;SDS011;31563;51.744;8.252;2024-03-22T12:35:49;3.20;;;1.88;;
45842;SDS011;31563;51.744;8.252;2024-03-22T12:38:15;2.60;;;1.70;;
45842;SDS011;31563;51.744;8.252;2024-03-22T12:40:43;4.78;;;2.05;;
45842;SDS011;31563;51.744;8.252;2024-03-22T12:43:10;3.05;;;1.45;;
45842;SDS011;31563;51.744;8.252;2024-03-22T12:45:37;3.08;;;1.55;;
45842;SDS011;31563;51.744;8.252;2024-03-22T12:48:04;4.45;;;2.10;;
45842;SDS011;31563;51.744;8.252;2024-03-22T12:50:31;3.75;;;1.90;;
45842;SDS011;31563;51.744;8.252;2024-03-22T12:52:59;3.45;;;1.75;;
45842;SDS011;31563;51.744;8.252;2024-03-22T12:55:26;3.30;;;1.50;;
45842;SDS011;31563;51.744;8.252;2024-03-22T12:57:53;2.33;;;1.70;;
45842;SDS011;31563;51.744;8.252;2024-03-22T13:00:22;3.00;;;1.85;;
45842;SDS011;31563;51.744;8.252;2024-03-22T13:02:48;3.58;;;1.92;;
45842;SDS011;31563;51.744;8.252;2024-03-22T13:05:15;3.47;;;1.85;;
45842;SDS011;31563;51.744;8.252;2024-03-22T13:07:41;4.10;;;1.50;;
45842;SDS011;31563;51.744;8.252;2024-03-22T13:10:08;2.83;;;1.63;;
45842;SDS011;31563;51.744;8.252;2024-03-22T13:12:35;2.22;;;1.70;;
45842;SDS011;31563;51.744;8.252;2024-03-22T13:15:02;2.03;;;1.52;;
45842;SDS011;31563;51.744;8.252;2024-03-22T13:17:31;3.15;;;1.73;;
45842;SDS011;31563;51.744;8.252;2024-03-22T13:19:58;1.92;;;1.58;;
45842;SDS011;31563;51.744;8.252;2024-03-22T13:22:25;3.13;;;1.95;;
45842;SDS011;31563;51.744;8.252;2024-03-22T13:24:52;2.72;;;1.90;;
45842;SDS011;31563;51.744;8.252;2024-03-22T13:27:18;2.47;;;1.63;;
45842;SDS011;31563;51.744;8.252;2024-03-22T13:29:47;2.83;;;1.90;;
45842;SDS011;31563;51.744;8.252;2024-03-22T13:32:14;2.90;;;2.00;;
45842;SDS011;31563;51.744;8.252;2024-03-22T13:34:43;2.65;;;2.33;;
45842;SDS011;31563;51.744;8.252;2024-03-22T13:37:09;2.47;;;1.88;;
45842;SDS011;31563;51.744;8.252;2024-03-22T13:39:36;3.33;;;2.20;;
45842;SDS011;31563;51.744;8.252;2024-03-22T13:42:02;3.13;;;2.03;;
45842;SDS011;31563;51.744;8.252;2024-03-22T13:44:31;2.58;;;2.10;;
45842;SDS011;31563;51.744;8.252;2024-03-22T13:46:58;2.90;;;2.00;;
45842;SDS011;31563;51.744;8.252;2024-03-22T13:49:25;2.40;;;1.88;;
45842;SDS011;31563;51.744;8.252;2024-03-22T13:51:52;4.55;;;2.40;;
45842;SDS011;31563;51.744;8.252;2024-03-22T13:54:19;3.47;;;2.88;;
45842;SDS011;31563;51.744;8.252;2024-03-22T13:56:45;3.92;;;2.88;;
45842;SDS011;31563;51.744;8.252;2024-03-22T13:59:12;4.72;;;2.63;;
45842;SDS011;31563;51.744;8.252;2024-03-22T14:01:41;5.15;;;2.63;;
45842;SDS011;31563;51.744;8.252;2024-03-22T14:04:10;3.10;;;2.47;;
45842;SDS011;31563;51.744;8.252;2024-03-22T14:06:37;3.40;;;2.42;;
45842;SDS011;31563;51.744;8.252;2024-03-22T14:09:06;2.95;;;2.40;;
45842;SDS011;31563;51.744;8.252;2024-03-22T14:11:35;2.88;;;2.15;;
45842;SDS011;31563;51.744;8.252;2024-03-22T14:14:02;3.33;;;2.70;;
45842;SDS011;31563;51.744;8.252;2024-03-22T14:16:29;4.38;;;2.67;;
45842;SDS011;31563;51.744;8.252;2024-03-22T14:18:56;4.95;;;2.80;;
45842;SDS011;31563;51.744;8.252;2024-03-22T14:21:22;3.15;;;2.08;;
45842;SDS011;31563;51.744;8.252;2024-03-22T14:23:49;10.95;;;8.43;;
45842;SDS011;31563;51.744;8.252;2024-03-22T14:26:18;7.13;;;5.15;;
45842;SDS011;31563;51.744;8.252;2024-03-22T14:28:45;9.48;;;5.35;;
45842;SDS011;31563;51.744;8.252;2024-03-22T14:31:12;8.18;;;5.28;;
45842;SDS011;31563;51.744;8.252;2024-03-22T14:33:40;5.90;;;4.25;;
45842;SDS011;31563;51.744;8.252;2024-03-22T14:36:06;8.98;;;4.63;;
45842;SDS011;31563;51.744;8.252;2024-03-22T14:38:34;4.53;;;4.05;;
45842;SDS011;31563;51.744;8.252;2024-03-22T14:41:00;6.50;;;3.90;;
45842;SDS011;31563;51.744;8.252;2024-03-22T14:43:29;4.88;;;4.03;;
45842;SDS011;31563;51.744;8.252;2024-03-22T14:45:56;4.38;;;3.33;;
45842;SDS011;31563;51.744;8.252;2024-03-22T14:48:23;5.63;;;3.50;;
45842;SDS011;31563;51.744;8.252;2024-03-22T14:50:50;4.82;;;3.10;;